Latest Coastal Weather Observations for Avalon

IDV60701

Issued at 8:01 pm EDT Sunday 7 February 2016 (issued every 10 minutes, with the page automatically refreshed every 10 minutes)

About coastal observations | Map of coastal stations | Coastal observations for VIC | Marine services | Other Formats
Station Details ID: 087113 Name: AVALON AIRPORT Lat: -38.03 Lon: 144.48 Height: 10.6 m
Data from the previous 72 hours. | See also: Recent months at Avalon
Date/Time
EDT
Temp

°C
Wind Pressure Rain
since 9am
mm
Weather Cloud Vis
km
Sea
Height
m
Swell
Dir
 
Speed
knots
Gust
knots
hPa Trend Height
m
Period
s
Dir
07/08:00pm - - - - - - - - - - - - - -
07/07:30pm - - - - - - - - - - - - - -
07/07:00pm - - - - - - - - - - - - - -
07/06:30pm - - - - - - - - - - - - - -
07/06:00pm - S 18 23 - - 0.0 - - 10 - - - -
07/05:30pm 24.3 S 17 23 1016.5 - 0.0 - - 10 - - - -
07/05:00pm 24.2 S 18 23 1016.2 - 0.0 - - 10 - - - -
07/04:30pm 25.3 S 19 24 1016.0 - 0.0 - - 10 - - - -
07/04:00pm 26.0 S 15 20 1016.1 - 0.0 - - 10 - - - -
07/03:30pm 26.9 S 13 16 1015.9 - 0.0 - - 10 - - - -
07/03:00pm 26.6 S 13 16 1016.1 - 0.0 - - 10 - - - -
07/02:30pm 26.8 S 13 16 1016.2 - 0.0 - - 10 - - - -
07/02:00pm 26.6 S 15 19 1016.3 - 0.0 - - 10 - - - -
07/01:30pm 27.6 S 11 14 1016.5 - 0.0 - - 10 - - - -
07/01:00pm 27.1 SSE 8 12 1016.5 - 0.0 - - 10 - - - -
07/12:30pm 26.4 SSW 6 10 1016.6 - 0.0 - - 10 - - - -
07/12:00pm 25.4 S 5 7 1016.9 - 0.0 - - 10 - - - -
07/11:30am 24.1 S 9 12 1017.2 - 0.0 - - 10 - - - -
07/11:00am 23.0 S 8 12 1017.4 - 0.0 - - 10 - - - -
07/10:30am 22.6 SSW 9 12 1017.5 - 0.0 - - 10 - - - -
07/10:09am 21.7 SSW 9 12 1017.5 - 0.0 - Partly cloudy 10 - - - -
07/10:00am 21.8 SSW 9 12 1017.5 - 0.0 - Partly cloudy 10 - - - -
07/09:30am 20.1 SSW 12 15 1017.3 - 0.0 - Partly cloudy 10 - - - -
07/09:21am 19.7 SSW 13 16 1017.3 - 0.0 - Partly cloudy 10 - - - -
07/09:00am 20.9 SSW 13 16 1017.1 - 0.0 - - 10 - - - -
07/08:30am 20.2 WSW 7 8 1016.6 - 0.0 - - 10 - - - -
07/08:00am 18.0 W 4 6 1016.2 - 0.0 - - 10 - - - -
07/07:30am 17.0 NW 4 5 1015.8 - 0.0 - - 10 - - - -
07/07:00am 15.7 NNW 5 5 1015.3 - 0.0 - - 10 - - - -
07/06:30am 16.0 WNW 3 4 1015.1 - 0.0 - - 10 - - - -
07/06:00am 16.7 WNW 4 6 1014.8 - 0.0 - - 10 - - - -
07/05:30am 16.1 WNW 2 3 1014.3 - 0.0 - - 10 - - - -
07/05:00am 17.3 WSW 4 4 1014.4 - 0.0 - - 10 - - - -
07/04:30am 17.5 WNW 4 5 1014.5 - 0.0 - - 10 - - - -
07/04:00am 17.5 WNW 4 5 1014.6 - 0.0 - - 10 - - - -
07/03:30am 18.0 WNW 4 5 1014.6 - 0.0 - - 10 - - - -
07/03:00am 17.5 NW 4 5 1014.6 - 0.0 - - 10 - - - -
07/02:30am 18.4 WNW 2 5 1014.7 - 0.0 - - 10 - - - -
07/02:00am 19.2 CALM 0 0 1014.8 - 0.0 - - 10 - - - -
07/01:30am 19.2 CALM 0 0 1015.0 - 0.0 - - 10 - - - -
07/01:00am 19.6 CALM 0 0 1015.1 - 0.0 - - 10 - - - -
07/12:30am 19.5 S 3 7 1015.2 - 0.0 - - 10 - - - -
07/12:00am 20.5 SW 5 6 1015.1 - 0.0 - - 10 - - - -
 
Date/Time
EDT
Temp

°C
Wind Pressure Rain
since 9am
mm
Weather Cloud Vis
km
Sea
Height
m
Swell
Dir
 
Speed
knots
Gust
knots
hPa Trend Height
m
Period
s
Dir
06/11:30pm 20.6 SW 2 4 1015.1 - 0.0 - - 10 - - - -
06/11:00pm 20.9 SSW 6 7 1015.2 - 0.0 - - 10 - - - -
06/10:30pm 21.1 SW 7 8 1015.0 - 0.0 - - 10 - - - -
06/10:00pm 21.5 SW 8 9 1014.8 - 0.0 - - 10 - - - -
06/09:30pm 21.5 SSW 10 12 1014.5 - 0.0 - - 10 - - - -
06/09:00pm 21.8 SSW 12 15 1014.2 - 0.0 - - 10 - - - -
06/08:30pm 22.6 SSW 11 15 1013.8 - 0.0 - - 10 - - - -
06/08:00pm 24.1 SSW 12 15 1013.5 - 0.0 - - 10 - - - -
06/07:30pm 26.2 S 10 13 1013.3 - 0.0 - - 10 - - - -
06/07:00pm 28.5 ESE 10 11 1012.9 - 0.0 - - 10 - - - -
06/06:30pm 30.1 ESE 12 16 1012.8 - 0.0 - - 10 - - - -
06/06:00pm 29.7 ESE 14 17 1012.8 - 0.0 - - 10 - - - -
06/05:30pm 29.7 E 18 21 1012.6 - 0.0 - - 10 - - - -
06/05:00pm 30.0 E 18 21 1012.7 - 0.0 - - 10 - - - -
06/04:30pm 30.1 E 17 21 1013.0 - 0.0 - - 10 - - - -
06/04:00pm 31.0 E 14 18 1013.4 - 0.0 - - 10 - - - -
06/03:30pm 30.9 E 13 17 1013.9 - 0.0 - - 10 - - - -
06/03:00pm 29.6 E 14 16 1014.2 - 0.0 - - 10 - - - -
06/02:30pm 29.3 ESE 14 17 1014.6 - 0.0 - - 10 - - - -
06/02:00pm 28.8 ESE 14 19 1015.0 - 0.0 - - 10 - - - -
06/01:30pm 27.7 ESE 13 17 1015.3 - 0.0 - - 10 - - - -
06/01:00pm 26.9 SE 11 14 1015.6 - 0.0 - - 10 - - - -
06/12:30pm 25.6 ESE 10 12 1016.1 - 0.0 - - 10 - - - -
06/12:00pm 24.9 ESE 9 12 1016.5 - 0.0 - - 10 - - - -
06/11:30am 24.9 SE 8 13 1016.8 - 0.0 - - 10 - - - -
06/11:00am 24.2 ENE 4 7 1017.0 - 0.0 - - 10 - - - -
06/10:30am 22.4 ESE 6 9 1017.3 - 0.0 - - 10 - - - -
06/10:00am 22.3 E 6 8 1017.3 - 0.0 - - 10 - - - -
06/09:30am 21.2 ENE 4 5 1017.4 - 0.0 - - 10 - - - -
06/09:00am 19.6 WNW 1 3 1017.4 - 0.0 - - 10 - - - -
06/08:30am 18.2 WNW 4 5 1017.3 - 0.0 - - 10 - - - -
06/08:00am 16.7 WNW 5 6 1017.1 - 0.0 - - 10 - - - -
06/07:30am 15.6 NW 5 6 1016.9 - 0.0 - - 10 - - - -
06/07:00am 14.8 NW 5 6 1016.5 - 0.0 - - 10 - - - -
06/06:30am 14.8 NW 8 10 1016.2 - 0.0 - - 10 - - - -
06/06:00am 14.4 NW 5 6 1016.1 - 0.0 - - 10 - - - -
06/05:30am 14.5 NW 5 6 1015.9 - 0.0 - - 10 - - - -
06/05:00am 15.1 NW 6 8 1015.7 - 0.0 - - 10 - - - -
06/04:30am 16.6 ENE 3 5 1015.7 - 0.0 - - 10 - - - -
06/04:00am 16.6 ESE 5 7 1015.8 - 0.0 - - 10 - - - -
06/03:30am 17.4 ESE 7 9 1015.9 - 0.0 - - 10 - - - -
06/03:00am 18.2 SE 8 10 1016.1 - 0.0 - - 10 - - - -
06/02:30am 18.3 SE 10 13 1016.3 - 0.0 - - 10 - - - -
06/02:00am 18.5 SE 11 14 1016.6 - 0.0 - - 10 - - - -
06/01:30am 18.5 SE 11 15 1017.0 - 0.0 - - 10 - - - -
06/01:00am 18.8 SE 11 15 1017.3 - 0.0 - - 10 - - - -
06/12:30am 19.1 SE 14 19 1017.6 - 0.0 - - 10 - - - -
06/12:00am 19.5 SE 17 23 1017.6 - 0.0 - - 10 - - - -
 
Date/Time
EDT
Temp

°C
Wind Pressure Rain
since 9am
mm
Weather Cloud Vis
km
Sea
Height
m
Swell
Dir
 
Speed
knots
Gust
knots
hPa Trend Height
m
Period
s
Dir
05/11:30pm 19.8 ESE 15 20 1017.8 - 0.0 - - 10 - - - -
05/11:00pm 20.2 ESE 17 24 1017.9 - 0.0 - - 10 - - - -
05/10:59pm 20.2 ESE 16 24 1018.0 - 0.0 - - 10 - - - -
05/10:30pm 19.5 SE 9 13 1018.1 - 0.0 - - 10 - - - -
05/10:00pm 19.8 SE 9 11 1017.9 - 0.0 - - 10 - - - -
05/09:30pm 20.3 SSE 10 12 1017.7 - 0.0 - - 10 - - - -
05/09:00pm 20.8 S 9 11 1017.4 - 0.0 - - 10 - - - -
05/08:30pm 22.1 S 9 11 1017.2 - 0.0 - - 10 - - - -
05/08:00pm 23.2 S 10 13 1016.8 - 0.0 - - 10 - - - -
05/07:30pm 24.3 S 12 14 1016.3 - 0.0 - - 10 - - - -
05/07:00pm 25.2 S 12 15 1016.2 - 0.0 - - 10 - - - -
05/06:30pm 25.5 S 14 17 1016.2 - 0.0 - - 10 - - - -
05/06:00pm 25.7 S 15 19 1016.3 - 0.0 - - 10 - - - -
05/05:30pm 26.0 S 16 19 1016.5 - 0.0 - - 10 - - - -
05/05:00pm 26.4 S 16 20 1016.7 - 0.0 - - 10 - - - -
05/04:30pm 26.2 S 15 19 1016.9 - 0.0 - - 10 - - - -
05/04:00pm 26.8 S 14 18 1017.3 - 0.0 - - 10 - - - -
05/03:30pm 26.0 SSW 15 20 1017.6 - 0.0 - - 10 - - - -
05/03:00pm 26.2 S 15 19 1017.9 - 0.0 - - 10 - - - -
05/02:30pm 25.6 SSW 13 18 1018.4 - 0.0 - - 10 - - - -
05/02:00pm 25.7 ESE 11 15 1018.6 - 0.0 - - 10 - - - -
05/01:30pm 24.8 SE 11 16 1019.0 - 0.0 - - 10 - - - -
05/01:00pm 24.5 ESE 11 16 1019.4 - 0.0 - - 10 - - - -
05/12:30pm 23.9 ESE 11 16 1019.7 - 0.0 - - 10 - - - -
05/12:00pm 23.2 SE 11 15 1020.0 - 0.0 - - 10 - - - -
05/11:30am 22.8 ESE 14 19 1020.2 - 0.0 - - 10 - - - -
05/11:00am 22.2 ESE 16 21 1020.2 - 0.0 - - 10 - - - -
05/10:30am 21.7 ESE 17 23 1020.3 - 0.0 - - 10 - - - -
05/10:00am 21.4 SE 15 19 1020.6 - 0.0 - - 10 - - - -
05/09:30am 20.6 ESE 16 20 1020.5 - 0.0 - - 10 - - - -
05/09:00am 20.0 SE 15 19 1020.5 - 0.0 - - 10 - - - -
05/08:30am 19.7 SE 12 15 1020.3 - 0.0 - - 10 - - - -
05/08:00am 18.9 SE 11 15 1020.1 - 0.0 - - 10 - - - -
05/07:30am 17.8 SSE 9 11 1020.1 - 0.0 - - 10 - - - -
05/07:00am 16.8 SSE 9 11 1019.9 - 0.0 - - 10 - - - -
05/06:30am 17.1 S 11 14 1019.5 - 0.0 - - 10 - - - -
05/06:00am 17.0 S 10 13 1019.2 - 0.0 - - 10 - - - -
05/05:30am 17.1 S 11 14 1019.0 - 0.0 - Partly cloudy 10 - - - -
05/05:00am 16.9 S 11 15 1018.9 - 0.0 - Cloudy 10 - - - -
05/04:30am 17.1 S 11 13 1019.0 - 0.0 - Cloudy 10 - - - -
05/04:00am 17.1 S 12 15 1019.0 - 0.0 - Cloudy 10 - - - -
05/03:30am 17.3 S 12 14 1019.2 - 0.0 - Partly cloudy 10 - - - -
05/03:00am 17.3 SSE 12 16 1019.4 - 0.0 - Cloudy 10 - - - -
05/02:30am 17.7 S 13 17 1019.6 - 0.0 - Cloudy 10 - - - -
05/02:00am 17.6 S 12 15 1019.8 - 0.0 - Partly cloudy 10 - - - -
05/01:30am 17.5 S 11 15 1020.1 - 0.0 - Partly cloudy 10 - - - -
05/01:00am 17.5 S 13 17 1020.0 - 0.0 - Partly cloudy 10 - - - -
05/12:30am 17.5 S 12 15 1020.1 - 0.0 - Partly cloudy 10 - - - -
05/12:00am 17.3 S 10 13 1020.3 - 0.0 - Mostly cloudy 10 - - - -
 
Date/Time
EDT
Temp

°C
Wind Pressure Rain
since 9am
mm
Weather Cloud Vis
km
Sea
Height
m
Swell
Dir
 
Speed
knots
Gust
knots
hPa Trend Height
m
Period
s
Dir
04/11:30pm 16.6 S 11 14 1020.3 - 0.0 - Partly cloudy 10 - - - -
04/11:00pm 16.2 S 9 11 1020.5 - 0.0 - Partly cloudy 10 - - - -
04/10:30pm 16.4 S 8 10 1020.7 - 0.0 - Cloudy 10 - - - -
04/10:00pm 17.0 S 12 15 1020.8 - 0.0 - Cloudy 10 - - - -
04/09:30pm 16.8 S 11 14 1020.5 - 0.0 - Cloudy 10 - - - -
04/09:00pm 16.5 SSW 12 16 1020.3 - 0.0 - Partly cloudy 10 - - - -
04/08:30pm 16.8 SSW 14 18 1020.3 - 0.0 - Cloudy 10 - - - -

Other Formats:

Comma delimited format used in spreadsheet applications
http://www.bom.gov.au/fwo/IDV60701/IDV60701.94854.axf

JavaScript Object Notation format (JSON) in row-major order
http://www.bom.gov.au/fwo/IDV60701/IDV60701.94854.json